sensor_id;sensor_type;location;lat;lon;timestamp;temperature;humidity
5592;DHT22;2818;49.790;9.958;2023-01-16T00:01:44;3.20;1.00
5592;DHT22;2818;49.790;9.958;2023-01-16T00:04:12;3.20;1.00
5592;DHT22;2818;49.790;9.958;2023-01-16T00:06:38;3.20;1.00
5592;DHT22;2818;49.790;9.958;2023-01-16T00:09:07;3.30;1.00
5592;DHT22;2818;49.790;9.958;2023-01-16T00:11:34;3.30;1.00
5592;DHT22;2818;49.790;9.958;2023-01-16T00:14:01;3.30;1.00
5592;DHT22;2818;49.790;9.958;2023-01-16T00:16:28;3.40;1.00
5592;DHT22;2818;49.790;9.958;2023-01-16T00:18:55;3.40;1.00
5592;DHT22;2818;49.790;9.958;2023-01-16T00:21:23;3.40;1.00
5592;DHT22;2818;49.790;9.958;2023-01-16T00:23:54;3.40;1.00
5592;DHT22;2818;49.790;9.958;2023-01-16T00:26:21;3.40;1.00
5592;DHT22;2818;49.790;9.958;2023-01-16T00:28:48;3.40;1.00
5592;DHT22;2818;49.790;9.958;2023-01-16T00:31:16;3.50;1.00
5592;DHT22;2818;49.790;9.958;2023-01-16T00:33:43;3.50;1.00
5592;DHT22;2818;49.790;9.958;2023-01-16T00:36:10;3.50;1.00
5592;DHT22;2818;49.790;9.958;2023-01-16T00:38:38;3.50;1.00
5592;DHT22;2818;49.790;9.958;2023-01-16T00:41:05;3.60;1.00
5592;DHT22;2818;49.790;9.958;2023-01-16T00:43:33;3.60;1.00
5592;DHT22;2818;49.790;9.958;2023-01-16T00:46:00;3.60;1.00
5592;DHT22;2818;49.790;9.958;2023-01-16T00:48:27;3.70;1.00
5592;DHT22;2818;49.790;9.958;2023-01-16T00:50:54;3.70;1.00
5592;DHT22;2818;49.790;9.958;2023-01-16T00:53:21;3.70;1.00
5592;DHT22;2818;49.790;9.958;2023-01-16T00:55:50;3.70;1.00
5592;DHT22;2818;49.790;9.958;2023-01-16T00:58:18;3.70;1.00
5592;DHT22;2818;49.790;9.958;2023-01-16T01:00:45;3.80;1.00
5592;DHT22;2818;49.790;9.958;2023-01-16T01:03:12;3.80;1.00
5592;DHT22;2818;49.790;9.958;2023-01-16T01:05:39;3.80;1.00
5592;DHT22;2818;49.790;9.958;2023-01-16T01:08:06;3.90;1.00
5592;DHT22;2818;49.790;9.958;2023-01-16T01:10:36;3.90;1.00
5592;DHT22;2818;49.790;9.958;2023-01-16T01:13:03;4.00;1.00
5592;DHT22;2818;49.790;9.958;2023-01-16T01:15:30;4.00;1.00
5592;DHT22;2818;49.790;9.958;2023-01-16T01:17:57;4.00;1.00
5592;DHT22;2818;49.790;9.958;2023-01-16T01:20:24;4.10;1.00
5592;DHT22;2818;49.790;9.958;2023-01-16T01:22:51;4.10;1.00
5592;DHT22;2818;49.790;9.958;2023-01-16T01:25:18;4.10;1.00
5592;DHT22;2818;49.790;9.958;2023-01-16T01:27:45;4.10;1.00
5592;DHT22;2818;49.790;9.958;2023-01-16T01:30:12;4.20;99.90
5592;DHT22;2818;49.790;9.958;2023-01-16T01:32:39;4.20;99.90
5592;DHT22;2818;49.790;9.958;2023-01-16T01:35:06;4.20;99.90
5592;DHT22;2818;49.790;9.958;2023-01-16T01:37:34;4.20;99.90
5592;DHT22;2818;49.790;9.958;2023-01-16T01:40:03;4.20;99.90
5592;DHT22;2818;49.790;9.958;2023-01-16T01:42:39;4.30;99.90
5592;DHT22;2818;49.790;9.958;2023-01-16T01:45:22;4.30;1.00
5592;DHT22;2818;49.790;9.958;2023-01-16T01:52:59;4.40;99.90
5592;DHT22;2818;49.790;9.958;2023-01-16T01:55:28;4.40;1.00
5592;DHT22;2818;49.790;9.958;2023-01-16T01:57:58;4.40;29.20
5592;DHT22;2818;49.790;9.958;2023-01-16T02:00:27;4.40;1.00
5592;DHT22;2818;49.790;9.958;2023-01-16T02:03:01;4.40;92.70
5592;DHT22;2818;49.790;9.958;2023-01-16T02:05:34;4.50;99.90
5592;DHT22;2818;49.790;9.958;2023-01-16T02:08:03;4.50;99.90
5592;DHT22;2818;49.790;9.958;2023-01-16T02:10:36;4.40;99.90
5592;DHT22;2818;49.790;9.958;2023-01-16T02:13:05;4.40;99.90
5592;DHT22;2818;49.790;9.958;2023-01-16T02:15:33;4.40;1.00
5592;DHT22;2818;49.790;9.958;2023-01-16T02:18:00;4.40;1.00
5592;DHT22;2818;49.790;9.958;2023-01-16T02:23:51;4.40;99.90
5592;DHT22;2818;49.790;9.958;2023-01-16T02:29:41;4.30;1.00
5592;DHT22;2818;49.790;9.958;2023-01-16T02:32:17;4.30;1.00
5592;DHT22;2818;49.790;9.958;2023-01-16T02:37:47;4.20;1.00
5592;DHT22;2818;49.790;9.958;2023-01-16T02:48:23;4.10;1.00
5592;DHT22;2818;49.790;9.958;2023-01-16T02:53:55;4.20;1.00
5592;DHT22;2818;49.790;9.958;2023-01-16T02:56:33;4.20;1.00
5592;DHT22;2818;49.790;9.958;2023-01-16T02:59:03;4.20;1.00
5592;DHT22;2818;49.790;9.958;2023-01-16T03:01:34;4.20;1.00
5592;DHT22;2818;49.790;9.958;2023-01-16T03:04:52;4.20;99.90
5592;DHT22;2818;49.790;9.958;2023-01-16T03:07:18;4.20;1.00
5592;DHT22;2818;49.790;9.958;2023-01-16T03:18:06;4.40;8.70
5592;DHT22;2818;49.790;9.958;2023-01-16T03:20:54;4.40;1.00
5592;DHT22;2818;49.790;9.958;2023-01-16T03:26:14;4.40;1.00
5592;DHT22;2818;49.790;9.958;2023-01-16T03:29:13;4.50;99.90
5592;DHT22;2818;49.790;9.958;2023-01-16T03:31:52;4.50;1.00
5592;DHT22;2818;49.790;9.958;2023-01-16T03:34:29;4.50;1.00
5592;DHT22;2818;49.790;9.958;2023-01-16T03:39:29;4.50;1.00
5592;DHT22;2818;49.790;9.958;2023-01-16T03:42:04;4.50;1.00
5592;DHT22;2818;49.790;9.958;2023-01-16T03:44:35;4.50;1.00
5592;DHT22;2818;49.790;9.958;2023-01-16T03:47:08;4.50;99.90
5592;DHT22;2818;49.790;9.958;2023-01-16T03:49:40;4.60;28.30
5592;DHT22;2818;49.790;9.958;2023-01-16T03:52:11;4.60;99.90
5592;DHT22;2818;49.790;9.958;2023-01-16T03:54:45;4.60;99.90
5592;DHT22;2818;49.790;9.958;2023-01-16T03:57:26;4.60;1.00
5592;DHT22;2818;49.790;9.958;2023-01-16T03:59:54;4.60;1.00
5592;DHT22;2818;49.790;9.958;2023-01-16T04:08:14;4.60;99.90
5592;DHT22;2818;49.790;9.958;2023-01-16T04:10:45;4.60;99.90
5592;DHT22;2818;49.790;9.958;2023-01-16T04:13:21;4.60;99.90
5592;DHT22;2818;49.790;9.958;2023-01-16T04:15:52;4.70;1.00
5592;DHT22;2818;49.790;9.958;2023-01-16T04:18:26;4.70;28.70
5592;DHT22;2818;49.790;9.958;2023-01-16T04:20:54;4.70;99.10
5592;DHT22;2818;49.790;9.958;2023-01-16T04:23:21;4.70;1.00
5592;DHT22;2818;49.790;9.958;2023-01-16T04:25:48;4.60;12.40
5592;DHT22;2818;49.790;9.958;2023-01-16T04:28:15;4.70;1.00
5592;DHT22;2818;49.790;9.958;2023-01-16T04:30:42;4.60;99.90
5592;DHT22;2818;49.790;9.958;2023-01-16T04:33:09;4.60;99.90
5592;DHT22;2818;49.790;9.958;2023-01-16T04:35:36;4.60;1.00
5592;DHT22;2818;49.790;9.958;2023-01-16T04:38:03;4.60;99.90
5592;DHT22;2818;49.790;9.958;2023-01-16T04:40:30;4.60;57.60
5592;DHT22;2818;49.790;9.958;2023-01-16T04:42:57;4.60;1.00
5592;DHT22;2818;49.790;9.958;2023-01-16T04:45:24;4.60;99.90
5592;DHT22;2818;49.790;9.958;2023-01-16T04:47:51;4.60;54.00
5592;DHT22;2818;49.790;9.958;2023-01-16T04:50:19;4.60;1.00
5592;DHT22;2818;49.790;9.958;2023-01-16T04:52:46;4.60;89.20
5592;DHT22;2818;49.790;9.958;2023-01-16T04:55:14;4.60;1.00
5592;DHT22;2818;49.790;9.958;2023-01-16T04:57:40;4.60;1.00
5592;DHT22;2818;49.790;9.958;2023-01-16T05:00:09;4.60;99.90
5592;DHT22;2818;49.790;9.958;2023-01-16T05:02:36;4.60;99.90
5592;DHT22;2818;49.790;9.958;2023-01-16T05:05:03;4.70;1.00
5592;DHT22;2818;49.790;9.958;2023-01-16T05:07:30;4.60;1.00
5592;DHT22;2818;49.790;9.958;2023-01-16T05:09:57;4.60;1.00
5592;DHT22;2818;49.790;9.958;2023-01-16T05:12:24;4.70;1.00
5592;DHT22;2818;49.790;9.958;2023-01-16T05:14:51;4.70;99.90
5592;DHT22;2818;49.790;9.958;2023-01-16T05:17:18;4.60;1.00
5592;DHT22;2818;49.790;9.958;2023-01-16T05:19:49;4.60;99.90
5592;DHT22;2818;49.790;9.958;2023-01-16T05:22:16;4.60;1.00
5592;DHT22;2818;49.790;9.958;2023-01-16T05:24:43;4.60;1.00
5592;DHT22;2818;49.790;9.958;2023-01-16T05:27:10;4.60;1.00
5592;DHT22;2818;49.790;9.958;2023-01-16T05:29:37;4.60;1.00
5592;DHT22;2818;49.790;9.958;2023-01-16T05:32:04;4.60;99.90
5592;DHT22;2818;49.790;9.958;2023-01-16T05:34:31;4.50;99.90
5592;DHT22;2818;49.790;9.958;2023-01-16T05:36:58;4.50;99.90
5592;DHT22;2818;49.790;9.958;2023-01-16T05:39:25;4.40;1.00
5592;DHT22;2818;49.790;9.958;2023-01-16T05:41:51;4.40;99.90
5592;DHT22;2818;49.790;9.958;2023-01-16T05:44:18;4.40;1.00
5592;DHT22;2818;49.790;9.958;2023-01-16T05:46:46;4.30;1.00
5592;DHT22;2818;49.790;9.958;2023-01-16T05:49:13;4.20;1.00
5592;DHT22;2818;49.790;9.958;2023-01-16T05:51:39;4.20;1.00
5592;DHT22;2818;49.790;9.958;2023-01-16T05:54:10;4.20;1.00
5592;DHT22;2818;49.790;9.958;2023-01-16T05:56:38;4.20;99.90
5592;DHT22;2818;49.790;9.958;2023-01-16T05:59:08;4.10;99.90
5592;DHT22;2818;49.790;9.958;2023-01-16T06:01:35;4.10;99.90
5592;DHT22;2818;49.790;9.958;2023-01-16T06:04:02;4.00;99.90
5592;DHT22;2818;49.790;9.958;2023-01-16T06:06:29;4.00;99.90
5592;DHT22;2818;49.790;9.958;2023-01-16T06:08:56;3.90;1.00
5592;DHT22;2818;49.790;9.958;2023-01-16T06:11:23;3.90;99.90
5592;DHT22;2818;49.790;9.958;2023-01-16T06:13:50;3.90;99.90
5592;DHT22;2818;49.790;9.958;2023-01-16T06:16:17;3.80;1.00
5592;DHT22;2818;49.790;9.958;2023-01-16T06:18:44;3.80;99.90
5592;DHT22;2818;49.790;9.958;2023-01-16T06:21:11;3.80;99.90
5592;DHT22;2818;49.790;9.958;2023-01-16T06:23:38;3.80;1.00
5592;DHT22;2818;49.790;9.958;2023-01-16T06:26:05;3.70;99.90
5592;DHT22;2818;49.790;9.958;2023-01-16T06:28:37;3.70;1.00
5592;DHT22;2818;49.790;9.958;2023-01-16T06:31:05;3.70;99.90
5592;DHT22;2818;49.790;9.958;2023-01-16T06:33:33;3.70;99.90
5592;DHT22;2818;49.790;9.958;2023-01-16T06:36:00;3.60;1.00
5592;DHT22;2818;49.790;9.958;2023-01-16T06:38:27;3.50;99.90
5592;DHT22;2818;49.790;9.958;2023-01-16T06:40:54;3.50;1.00
5592;DHT22;2818;49.790;9.958;2023-01-16T06:43:26;3.50;1.00
5592;DHT22;2818;49.790;9.958;2023-01-16T06:45:54;3.40;1.00
5592;DHT22;2818;49.790;9.958;2023-01-16T06:48:21;3.40;1.00
5592;DHT22;2818;49.790;9.958;2023-01-16T06:50:48;3.30;1.00
5592;DHT22;2818;49.790;9.958;2023-01-16T06:53:15;3.30;1.00
5592;DHT22;2818;49.790;9.958;2023-01-16T06:55:42;3.20;1.00
5592;DHT22;2818;49.790;9.958;2023-01-16T06:58:09;3.20;99.90
5592;DHT22;2818;49.790;9.958;2023-01-16T07:00:37;3.20;71.70
5592;DHT22;2818;49.790;9.958;2023-01-16T07:03:04;3.10;99.90
5592;DHT22;2818;49.790;9.958;2023-01-16T07:05:31;3.10;99.90
5592;DHT22;2818;49.790;9.958;2023-01-16T07:07:58;3.00;99.90
5592;DHT22;2818;49.790;9.958;2023-01-16T07:10:25;3.00;99.90
5592;DHT22;2818;49.790;9.958;2023-01-16T07:12:52;3.00;99.90
5592;DHT22;2818;49.790;9.958;2023-01-16T07:15:20;2.90;1.00
5592;DHT22;2818;49.790;9.958;2023-01-16T07:18:11;2.90;99.90
5592;DHT22;2818;49.790;9.958;2023-01-16T07:21:00;3.00;99.90
5592;DHT22;2818;49.790;9.958;2023-01-16T07:24:06;3.00;99.90
5592;DHT22;2818;49.790;9.958;2023-01-16T07:26:37;2.90;99.90
5592;DHT22;2818;49.790;9.958;2023-01-16T07:29:04;2.90;58.10
5592;DHT22;2818;49.790;9.958;2023-01-16T07:31:32;2.90;99.90
5592;DHT22;2818;49.790;9.958;2023-01-16T07:33:59;2.90;1.00
5592;DHT22;2818;49.790;9.958;2023-01-16T07:36:26;2.90;1.00
5592;DHT22;2818;49.790;9.958;2023-01-16T07:38:53;2.90;1.00
5592;DHT22;2818;49.790;9.958;2023-01-16T07:41:20;2.90;1.00
5592;DHT22;2818;49.790;9.958;2023-01-16T07:43:47;2.90;1.00
5592;DHT22;2818;49.790;9.958;2023-01-16T07:46:14;2.90;1.00
5592;DHT22;2818;49.790;9.958;2023-01-16T07:48:41;2.90;99.90
5592;DHT22;2818;49.790;9.958;2023-01-16T07:51:08;2.90;1.00
5592;DHT22;2818;49.790;9.958;2023-01-16T07:53:35;2.90;1.00
5592;DHT22;2818;49.790;9.958;2023-01-16T07:56:02;2.90;1.00
5592;DHT22;2818;49.790;9.958;2023-01-16T07:58:30;2.90;1.00
5592;DHT22;2818;49.790;9.958;2023-01-16T08:00:57;2.90;1.00
5592;DHT22;2818;49.790;9.958;2023-01-16T08:03:24;2.80;1.00
5592;DHT22;2818;49.790;9.958;2023-01-16T08:05:58;2.90;1.00
5592;DHT22;2818;49.790;9.958;2023-01-16T08:08:25;2.90;1.00
5592;DHT22;2818;49.790;9.958;2023-01-16T08:10:56;2.80;1.00
5592;DHT22;2818;49.790;9.958;2023-01-16T08:13:24;2.80;15.00
5592;DHT22;2818;49.790;9.958;2023-01-16T08:15:52;2.80;99.90
5592;DHT22;2818;49.790;9.958;2023-01-16T08:18:19;2.70;99.90
5592;DHT22;2818;49.790;9.958;2023-01-16T08:20:47;2.70;99.90
5592;DHT22;2818;49.790;9.958;2023-01-16T08:23:14;2.80;99.90
5592;DHT22;2818;49.790;9.958;2023-01-16T08:25:41;2.80;99.90
5592;DHT22;2818;49.790;9.958;2023-01-16T08:28:08;2.80;99.90
5592;DHT22;2818;49.790;9.958;2023-01-16T08:30:35;2.80;99.90
5592;DHT22;2818;49.790;9.958;2023-01-16T08:33:02;2.90;99.90
5592;DHT22;2818;49.790;9.958;2023-01-16T08:35:29;2.90;99.90
5592;DHT22;2818;49.790;9.958;2023-01-16T08:37:56;2.90;99.90
5592;DHT22;2818;49.790;9.958;2023-01-16T08:40:23;2.90;99.90
5592;DHT22;2818;49.790;9.958;2023-01-16T08:42:52;2.90;41.50
5592;DHT22;2818;49.790;9.958;2023-01-16T08:45:37;2.90;1.00
5592;DHT22;2818;49.790;9.958;2023-01-16T08:48:25;3.00;1.00
5592;DHT22;2818;49.790;9.958;2023-01-16T08:51:16;3.10;1.00
5592;DHT22;2818;49.790;9.958;2023-01-16T08:53:50;3.20;99.90
5592;DHT22;2818;49.790;9.958;2023-01-16T08:56:18;3.30;99.90
5592;DHT22;2818;49.790;9.958;2023-01-16T08:58:46;3.30;99.90
5592;DHT22;2818;49.790;9.958;2023-01-16T09:01:12;3.20;1.00
5592;DHT22;2818;49.790;9.958;2023-01-16T09:03:40;3.20;1.00
5592;DHT22;2818;49.790;9.958;2023-01-16T09:06:07;3.20;99.90
5592;DHT22;2818;49.790;9.958;2023-01-16T09:08:34;3.20;1.00
5592;DHT22;2818;49.790;9.958;2023-01-16T09:11:00;3.40;1.00
5592;DHT22;2818;49.790;9.958;2023-01-16T09:13:46;3.40;99.90
5592;DHT22;2818;49.790;9.958;2023-01-16T09:16:17;3.50;1.00
5592;DHT22;2818;49.790;9.958;2023-01-16T09:18:45;3.50;1.00
5592;DHT22;2818;49.790;9.958;2023-01-16T09:21:12;3.60;99.90
5592;DHT22;2818;49.790;9.958;2023-01-16T09:23:39;3.70;99.90
5592;DHT22;2818;49.790;9.958;2023-01-16T09:26:06;3.80;1.00
5592;DHT22;2818;49.790;9.958;2023-01-16T09:28:33;3.80;65.00
5592;DHT22;2818;49.790;9.958;2023-01-16T09:31:00;4.10;1.00
5592;DHT22;2818;49.790;9.958;2023-01-16T09:33:27;4.30;70.20
5592;DHT22;2818;49.790;9.958;2023-01-16T09:35:54;4.50;1.00
5592;DHT22;2818;49.790;9.958;2023-01-16T09:38:21;4.70;99.90
5592;DHT22;2818;49.790;9.958;2023-01-16T09:40:56;5.00;1.00
5592;DHT22;2818;49.790;9.958;2023-01-16T09:43:36;5.70;1.00
5592;DHT22;2818;49.790;9.958;2023-01-16T09:46:18;6.60;99.90
5592;DHT22;2818;49.790;9.958;2023-01-16T09:48:58;6.70;1.00
5592;DHT22;2818;49.790;9.958;2023-01-16T09:51:32;6.90;1.00
5592;DHT22;2818;49.790;9.958;2023-01-16T09:54:04;7.20;1.00
5592;DHT22;2818;49.790;9.958;2023-01-16T09:56:57;8.00;1.00
5592;DHT22;2818;49.790;9.958;2023-01-16T09:59:47;8.40;1.00
5592;DHT22;2818;49.790;9.958;2023-01-16T10:02:25;8.70;99.90
5592;DHT22;2818;49.790;9.958;2023-01-16T10:04:54;8.70;99.90
5592;DHT22;2818;49.790;9.958;2023-01-16T10:19:00;8.40;99.90
5592;DHT22;2818;49.790;9.958;2023-01-16T10:22:16;8.70;99.90
5592;DHT22;2818;49.790;9.958;2023-01-16T10:25:03;8.70;99.90
5592;DHT22;2818;49.790;9.958;2023-01-16T10:30:29;7.40;99.90
5592;DHT22;2818;49.790;9.958;2023-01-16T10:33:05;7.60;99.90
5592;DHT22;2818;49.790;9.958;2023-01-16T10:35:37;7.90;99.90
5592;DHT22;2818;49.790;9.958;2023-01-16T10:38:25;8.00;99.90
5592;DHT22;2818;49.790;9.958;2023-01-16T10:41:34;7.80;99.90
5592;DHT22;2818;49.790;9.958;2023-01-16T10:47:17;6.90;99.90
5592;DHT22;2818;49.790;9.958;2023-01-16T10:50:04;6.60;1.00
5592;DHT22;2818;49.790;9.958;2023-01-16T10:52:32;6.30;1.00
5592;DHT22;2818;49.790;9.958;2023-01-16T10:55:00;6.10;1.00
5592;DHT22;2818;49.790;9.958;2023-01-16T10:57:28;6.00;1.00
5592;DHT22;2818;49.790;9.958;2023-01-16T11:00:11;5.80;1.00
5592;DHT22;2818;49.790;9.958;2023-01-16T11:02:42;5.40;99.90
5592;DHT22;2818;49.790;9.958;2023-01-16T11:05:29;5.20;1.00
5592;DHT22;2818;49.790;9.958;2023-01-16T11:08:06;5.00;1.00
5592;DHT22;2818;49.790;9.958;2023-01-16T11:10:33;4.80;1.00
5592;DHT22;2818;49.790;9.958;2023-01-16T11:13:00;4.70;1.00
5592;DHT22;2818;49.790;9.958;2023-01-16T11:19:21;4.40;1.00
5592;DHT22;2818;49.790;9.958;2023-01-16T11:21:54;4.30;1.00
5592;DHT22;2818;49.790;9.958;2023-01-16T11:24:31;4.30;1.00
5592;DHT22;2818;49.790;9.958;2023-01-16T11:27:01;4.30;1.00
5592;DHT22;2818;49.790;9.958;2023-01-16T11:29:35;4.10;14.60
5592;DHT22;2818;49.790;9.958;2023-01-16T11:32:06;4.10;21.50
5592;DHT22;2818;49.790;9.958;2023-01-16T11:34:37;4.00;26.30
5592;DHT22;2818;49.790;9.958;2023-01-16T11:37:06;4.00;1.40
5592;DHT22;2818;49.790;9.958;2023-01-16T11:39:34;4.00;1.00
5592;DHT22;2818;49.790;9.958;2023-01-16T11:42:06;4.00;1.00
5592;DHT22;2818;49.790;9.958;2023-01-16T11:44:57;4.10;1.00
5592;DHT22;2818;49.790;9.958;2023-01-16T11:47:50;4.10;1.00
5592;DHT22;2818;49.790;9.958;2023-01-16T11:50:32;4.10;1.00
5592;DHT22;2818;49.790;9.958;2023-01-16T11:52:59;4.20;1.00
5592;DHT22;2818;49.790;9.958;2023-01-16T11:55:39;4.30;1.00
5592;DHT22;2818;49.790;9.958;2023-01-16T11:58:24;4.40;1.00
5592;DHT22;2818;49.790;9.958;2023-01-16T12:01:09;4.40;1.00
5592;DHT22;2818;49.790;9.958;2023-01-16T12:06:11;4.60;99.90
5592;DHT22;2818;49.790;9.958;2023-01-16T12:09:03;4.60;99.90
5592;DHT22;2818;49.790;9.958;2023-01-16T12:14:52;4.80;99.90
5592;DHT22;2818;49.790;9.958;2023-01-16T12:17:35;4.90;1.00
5592;DHT22;2818;49.790;9.958;2023-01-16T12:20:08;5.00;1.00
5592;DHT22;2818;49.790;9.958;2023-01-16T12:25:43;5.10;1.00
5592;DHT22;2818;49.790;9.958;2023-01-16T12:34:06;5.20;22.00
5592;DHT22;2818;49.790;9.958;2023-01-16T12:37:01;5.10;21.50
5592;DHT22;2818;49.790;9.958;2023-01-16T12:48:08;4.50;1.00
5592;DHT22;2818;49.790;9.958;2023-01-16T12:58:36;4.30;1.00
5592;DHT22;2818;49.790;9.958;2023-01-16T13:01:22;4.30;1.00
5592;DHT22;2818;49.790;9.958;2023-01-16T13:03:57;4.30;1.00
5592;DHT22;2818;49.790;9.958;2023-01-16T13:06:50;4.30;1.00
5592;DHT22;2818;49.790;9.958;2023-01-16T13:09:57;4.40;1.00
5592;DHT22;2818;49.790;9.958;2023-01-16T13:12:45;4.40;1.00
5592;DHT22;2818;49.790;9.958;2023-01-16T13:15:36;4.40;99.90
5592;DHT22;2818;49.790;9.958;2023-01-16T13:18:27;4.40;99.90
5592;DHT22;2818;49.790;9.958;2023-01-16T13:20:58;4.40;1.00
5592;DHT22;2818;49.790;9.958;2023-01-16T13:23:32;4.50;1.00
5592;DHT22;2818;49.790;9.958;2023-01-16T13:26:11;4.40;1.00
5592;DHT22;2818;49.790;9.958;2023-01-16T13:34:08;4.40;1.00
5592;DHT22;2818;49.790;9.958;2023-01-16T13:42:08;4.40;1.00
5592;DHT22;2818;49.790;9.958;2023-01-16T13:44:43;4.30;1.00
5592;DHT22;2818;49.790;9.958;2023-01-16T13:47:35;4.20;1.00
5592;DHT22;2818;49.790;9.958;2023-01-16T13:50:26;4.20;1.00
5592;DHT22;2818;49.790;9.958;2023-01-16T13:53:01;4.20;1.00
5592;DHT22;2818;49.790;9.958;2023-01-16T13:55:34;4.10;1.00
5592;DHT22;2818;49.790;9.958;2023-01-16T13:58:20;4.10;1.00
5592;DHT22;2818;49.790;9.958;2023-01-16T14:01:03;4.20;1.00
5592;DHT22;2818;49.790;9.958;2023-01-16T14:03:32;4.20;1.00
5592;DHT22;2818;49.790;9.958;2023-01-16T14:06:25;4.20;1.00
5592;DHT22;2818;49.790;9.958;2023-01-16T14:17:29;4.40;1.00
5592;DHT22;2818;49.790;9.958;2023-01-16T14:23:04;4.60;1.00
5592;DHT22;2818;49.790;9.958;2023-01-16T14:25:56;4.60;1.00
5592;DHT22;2818;49.790;9.958;2023-01-16T14:28:26;4.60;1.00
5592;DHT22;2818;49.790;9.958;2023-01-16T14:30:53;4.50;1.00
5592;DHT22;2818;49.790;9.958;2023-01-16T14:33:21;4.50;1.00
5592;DHT22;2818;49.790;9.958;2023-01-16T14:35:51;4.50;1.00
5592;DHT22;2818;49.790;9.958;2023-01-16T14:38:30;4.50;1.00
5592;DHT22;2818;49.790;9.958;2023-01-16T14:41:05;4.50;1.00
5592;DHT22;2818;49.790;9.958;2023-01-16T14:47:23;4.60;1.00
5592;DHT22;2818;49.790;9.958;2023-01-16T14:50:13;4.70;1.00
5592;DHT22;2818;49.790;9.958;2023-01-16T14:58:50;4.90;1.00
5592;DHT22;2818;49.790;9.958;2023-01-16T15:01:49;4.80;1.00
5592;DHT22;2818;49.790;9.958;2023-01-16T15:10:30;4.80;1.00
5592;DHT22;2818;49.790;9.958;2023-01-16T15:13:13;4.80;1.00
5592;DHT22;2818;49.790;9.958;2023-01-16T15:15:46;4.80;1.00
5592;DHT22;2818;49.790;9.958;2023-01-16T15:18:17;4.80;1.00
5592;DHT22;2818;49.790;9.958;2023-01-16T15:21:14;4.80;1.00
5592;DHT22;2818;49.790;9.958;2023-01-16T15:24:00;4.80;1.00
5592;DHT22;2818;49.790;9.958;2023-01-16T15:32:02;4.70;1.00
5592;DHT22;2818;49.790;9.958;2023-01-16T15:34:31;4.70;1.00
5592;DHT22;2818;49.790;9.958;2023-01-16T15:36:59;4.70;1.00
5592;DHT22;2818;49.790;9.958;2023-01-16T15:39:41;4.70;1.00
5592;DHT22;2818;49.790;9.958;2023-01-16T15:42:21;4.70;1.00
5592;DHT22;2818;49.790;9.958;2023-01-16T15:45:20;4.70;1.00
5592;DHT22;2818;49.790;9.958;2023-01-16T15:51:11;4.70;1.00
5592;DHT22;2818;49.790;9.958;2023-01-16T15:53:44;4.70;1.00
5592;DHT22;2818;49.790;9.958;2023-01-16T15:56:22;4.60;1.00
5592;DHT22;2818;49.790;9.958;2023-01-16T15:58:54;4.70;1.00
5592;DHT22;2818;49.790;9.958;2023-01-16T16:01:33;4.70;1.00
5592;DHT22;2818;49.790;9.958;2023-01-16T16:04:02;4.70;1.00
5592;DHT22;2818;49.790;9.958;2023-01-16T16:06:30;4.70;99.90
5592;DHT22;2818;49.790;9.958;2023-01-16T16:09:01;4.70;1.00
5592;DHT22;2818;49.790;9.958;2023-01-16T16:11:31;4.70;99.90
5592;DHT22;2818;49.790;9.958;2023-01-16T16:17:25;4.70;99.90
5592;DHT22;2818;49.790;9.958;2023-01-16T16:22:51;4.70;56.40
5592;DHT22;2818;49.790;9.958;2023-01-16T16:25:35;4.80;99.90
5592;DHT22;2818;49.790;9.958;2023-01-16T16:28:04;4.80;99.90
5592;DHT22;2818;49.790;9.958;2023-01-16T16:30:40;4.90;1.00
5592;DHT22;2818;49.790;9.958;2023-01-16T16:33:18;4.90;99.90
5592;DHT22;2818;49.790;9.958;2023-01-16T16:35:50;4.90;1.00
5592;DHT22;2818;49.790;9.958;2023-01-16T16:38:25;5.00;1.00
5592;DHT22;2818;49.790;9.958;2023-01-16T16:41:38;5.10;1.00
5592;DHT22;2818;49.790;9.958;2023-01-16T16:44:44;5.10;40.80
5592;DHT22;2818;49.790;9.958;2023-01-16T16:47:27;5.10;99.90
5592;DHT22;2818;49.790;9.958;2023-01-16T16:49:55;5.10;99.90
5592;DHT22;2818;49.790;9.958;2023-01-16T16:54:56;5.20;37.40
5592;DHT22;2818;49.790;9.958;2023-01-16T16:57:24;5.20;1.00
5592;DHT22;2818;49.790;9.958;2023-01-16T16:59:53;5.20;1.00
5592;DHT22;2818;49.790;9.958;2023-01-16T17:02:22;5.20;1.00
5592;DHT22;2818;49.790;9.958;2023-01-16T17:04:49;5.20;99.90
5592;DHT22;2818;49.790;9.958;2023-01-16T17:07:17;5.20;86.50
5592;DHT22;2818;49.790;9.958;2023-01-16T17:09:45;5.20;1.00
5592;DHT22;2818;49.790;9.958;2023-01-16T17:12:13;5.30;1.00
5592;DHT22;2818;49.790;9.958;2023-01-16T17:14:41;5.40;1.00
5592;DHT22;2818;49.790;9.958;2023-01-16T17:17:15;5.50;1.00
5592;DHT22;2818;49.790;9.958;2023-01-16T17:19:43;5.60;1.00
5592;DHT22;2818;49.790;9.958;2023-01-16T17:22:10;5.60;1.00
5592;DHT22;2818;49.790;9.958;2023-01-16T17:24:38;5.60;1.00
5592;DHT22;2818;49.790;9.958;2023-01-16T17:27:05;5.70;1.00
5592;DHT22;2818;49.790;9.958;2023-01-16T17:29:37;5.80;1.00
5592;DHT22;2818;49.790;9.958;2023-01-16T17:32:27;5.80;1.00
5592;DHT22;2818;49.790;9.958;2023-01-16T17:34:58;5.80;1.00
5592;DHT22;2818;49.790;9.958;2023-01-16T17:37:25;5.70;1.00
5592;DHT22;2818;49.790;9.958;2023-01-16T17:39:52;5.70;1.00
5592;DHT22;2818;49.790;9.958;2023-01-16T17:42:19;5.60;1.00
5592;DHT22;2818;49.790;9.958;2023-01-16T17:44:46;5.50;99.90
5592;DHT22;2818;49.790;9.958;2023-01-16T17:47:31;5.40;1.00
5592;DHT22;2818;49.790;9.958;2023-01-16T17:49:58;5.40;1.00
5592;DHT22;2818;49.790;9.958;2023-01-16T17:52:44;5.40;1.00
5592;DHT22;2818;49.790;9.958;2023-01-16T17:55:10;5.40;1.00
5592;DHT22;2818;49.790;9.958;2023-01-16T17:57:57;5.30;1.00
5592;DHT22;2818;49.790;9.958;2023-01-16T18:00:24;5.20;1.00
5592;DHT22;2818;49.790;9.958;2023-01-16T18:02:51;5.10;1.00
5592;DHT22;2818;49.790;9.958;2023-01-16T18:05:18;5.00;17.90
5592;DHT22;2818;49.790;9.958;2023-01-16T18:07:45;5.00;16.00
5592;DHT22;2818;49.790;9.958;2023-01-16T18:10:12;4.90;8.00
5592;DHT22;2818;49.790;9.958;2023-01-16T18:12:39;4.90;7.00
5592;DHT22;2818;49.790;9.958;2023-01-16T18:15:24;4.90;9.10
5592;DHT22;2818;49.790;9.958;2023-01-16T18:18:10;5.00;1.00
5592;DHT22;2818;49.790;9.958;2023-01-16T18:20:39;5.00;1.00
5592;DHT22;2818;49.790;9.958;2023-01-16T18:23:06;5.00;1.00
5592;DHT22;2818;49.790;9.958;2023-01-16T18:25:33;5.00;1.00
5592;DHT22;2818;49.790;9.958;2023-01-16T18:28:00;5.00;24.40
5592;DHT22;2818;49.790;9.958;2023-01-16T18:30:27;5.00;27.90
5592;DHT22;2818;49.790;9.958;2023-01-16T18:32:54;5.00;50.70
5592;DHT22;2818;49.790;9.958;2023-01-16T18:35:21;4.90;44.40
5592;DHT22;2818;49.790;9.958;2023-01-16T18:37:50;4.90;52.70
5592;DHT22;2818;49.790;9.958;2023-01-16T18:40:35;4.90;67.20
5592;DHT22;2818;49.790;9.958;2023-01-16T18:43:21;4.90;83.70
5592;DHT22;2818;49.790;9.958;2023-01-16T18:46:23;4.90;69.70
5592;DHT22;2818;49.790;9.958;2023-01-16T18:49:10;4.90;84.50
5592;DHT22;2818;49.790;9.958;2023-01-16T18:52:14;4.90;81.00
5592;DHT22;2818;49.790;9.958;2023-01-16T18:55:02;4.90;99.90
5592;DHT22;2818;49.790;9.958;2023-01-16T18:57:48;4.90;99.90
5592;DHT22;2818;49.790;9.958;2023-01-16T19:00:33;4.80;99.90
5592;DHT22;2818;49.790;9.958;2023-01-16T19:03:18;4.80;99.90
5592;DHT22;2818;49.790;9.958;2023-01-16T19:05:46;4.70;99.90
5592;DHT22;2818;49.790;9.958;2023-01-16T19:08:13;4.70;99.90
5592;DHT22;2818;49.790;9.958;2023-01-16T19:10:49;4.60;99.90
5592;DHT22;2818;49.790;9.958;2023-01-16T19:13:18;4.60;99.90
5592;DHT22;2818;49.790;9.958;2023-01-16T19:15:45;4.50;99.90
5592;DHT22;2818;49.790;9.958;2023-01-16T19:18:31;4.50;99.90
5592;DHT22;2818;49.790;9.958;2023-01-16T19:20:58;4.40;99.90
5592;DHT22;2818;49.790;9.958;2023-01-16T19:23:25;4.40;99.90
5592;DHT22;2818;49.790;9.958;2023-01-16T19:25:52;4.40;99.90
5592;DHT22;2818;49.790;9.958;2023-01-16T19:28:19;4.40;99.90
5592;DHT22;2818;49.790;9.958;2023-01-16T19:30:49;4.30;99.90
5592;DHT22;2818;49.790;9.958;2023-01-16T19:33:16;4.30;99.90
5592;DHT22;2818;49.790;9.958;2023-01-16T19:35:43;4.30;99.90
5592;DHT22;2818;49.790;9.958;2023-01-16T19:38:10;4.20;99.90